sensor_id;sensor_type;location;lat;lon;timestamp;P1;durP1;ratioP1;P2;durP2;ratioP2
55362;SDS011;41244;49.242;9.060;2023-02-01T00:00:18;12.43;;;7.03;;
55362;SDS011;41244;49.242;9.060;2023-02-01T00:02:44;8.00;;;5.93;;
55362;SDS011;41244;49.242;9.060;2023-02-01T00:05:10;5.60;;;4.68;;
55362;SDS011;41244;49.242;9.060;2023-02-01T00:07:36;7.93;;;5.95;;
55362;SDS011;41244;49.242;9.060;2023-02-01T00:10:02;8.40;;;5.70;;
55362;SDS011;41244;49.242;9.060;2023-02-01T00:12:30;13.93;;;6.47;;
55362;SDS011;41244;49.242;9.060;2023-02-01T00:14:56;8.93;;;6.55;;
55362;SDS011;41244;49.242;9.060;2023-02-01T00:17:22;8.82;;;7.03;;
55362;SDS011;41244;49.242;9.060;2023-02-01T00:19:48;10.00;;;8.23;;
55362;SDS011;41244;49.242;9.060;2023-02-01T00:22:14;9.20;;;7.30;;
55362;SDS011;41244;49.242;9.060;2023-02-01T00:24:40;9.68;;;7.30;;
55362;SDS011;41244;49.242;9.060;2023-02-01T00:27:05;9.80;;;7.15;;
55362;SDS011;41244;49.242;9.060;2023-02-01T00:29:31;8.35;;;6.63;;
55362;SDS011;41244;49.242;9.060;2023-02-01T00:31:57;7.93;;;7.00;;
55362;SDS011;41244;49.242;9.060;2023-02-01T00:34:23;10.32;;;7.00;;
55362;SDS011;41244;49.242;9.060;2023-02-01T00:36:48;8.40;;;6.78;;
55362;SDS011;41244;49.242;9.060;2023-02-01T00:39:16;9.38;;;7.95;;
55362;SDS011;41244;49.242;9.060;2023-02-01T00:41:42;11.25;;;6.88;;
55362;SDS011;41244;49.242;9.060;2023-02-01T00:44:08;9.05;;;6.53;;
55362;SDS011;41244;49.242;9.060;2023-02-01T00:46:34;7.82;;;6.75;;
55362;SDS011;41244;49.242;9.060;2023-02-01T00:48:59;9.88;;;7.10;;
55362;SDS011;41244;49.242;9.060;2023-02-01T00:51:26;7.68;;;6.30;;
55362;SDS011;41244;49.242;9.060;2023-02-01T00:53:54;8.77;;;7.45;;
55362;SDS011;41244;49.242;9.060;2023-02-01T00:56:20;9.10;;;6.63;;
55362;SDS011;41244;49.242;9.060;2023-02-01T00:58:46;7.53;;;6.18;;
55362;SDS011;41244;49.242;9.060;2023-02-01T01:01:13;9.05;;;6.68;;
55362;SDS011;41244;49.242;9.060;2023-02-01T01:03:51;8.65;;;6.70;;
55362;SDS011;41244;49.242;9.060;2023-02-01T01:06:20;8.65;;;6.72;;
55362;SDS011;41244;49.242;9.060;2023-02-01T01:08:52;8.35;;;6.07;;
55362;SDS011;41244;49.242;9.060;2023-02-01T01:11:25;10.68;;;5.97;;
55362;SDS011;41244;49.242;9.060;2023-02-01T01:16:21;9.63;;;6.10;;
55362;SDS011;41244;49.242;9.060;2023-02-01T01:18:48;10.50;;;6.38;;
55362;SDS011;41244;49.242;9.060;2023-02-01T01:21:14;10.65;;;7.53;;
55362;SDS011;41244;49.242;9.060;2023-02-01T01:23:41;13.65;;;7.32;;
55362;SDS011;41244;49.242;9.060;2023-02-01T01:26:08;12.20;;;7.35;;
55362;SDS011;41244;49.242;9.060;2023-02-01T01:28:44;9.38;;;6.65;;
55362;SDS011;41244;49.242;9.060;2023-02-01T01:31:10;9.32;;;6.68;;
55362;SDS011;41244;49.242;9.060;2023-02-01T01:33:37;8.00;;;6.63;;
55362;SDS011;41244;49.242;9.060;2023-02-01T01:36:07;8.70;;;6.45;;
55362;SDS011;41244;49.242;9.060;2023-02-01T01:38:36;7.88;;;6.60;;
55362;SDS011;41244;49.242;9.060;2023-02-01T01:41:05;7.60;;;6.72;;
55362;SDS011;41244;49.242;9.060;2023-02-01T01:43:48;12.00;;;7.13;;
55362;SDS011;41244;49.242;9.060;2023-02-01T01:46:26;7.15;;;6.40;;
55362;SDS011;41244;49.242;9.060;2023-02-01T01:51:42;8.35;;;6.30;;
55362;SDS011;41244;49.242;9.060;2023-02-01T01:57:11;11.45;;;7.03;;
55362;SDS011;41244;49.242;9.060;2023-02-01T01:59:48;9.13;;;6.68;;
55362;SDS011;41244;49.242;9.060;2023-02-01T02:02:19;9.13;;;6.30;;
55362;SDS011;41244;49.242;9.060;2023-02-01T02:04:45;10.07;;;6.80;;
55362;SDS011;41244;49.242;9.060;2023-02-01T02:07:12;10.68;;;6.28;;
55362;SDS011;41244;49.242;9.060;2023-02-01T02:09:43;10.00;;;6.63;;
55362;SDS011;41244;49.242;9.060;2023-02-01T02:12:09;9.57;;;6.63;;
55362;SDS011;41244;49.242;9.060;2023-02-01T02:14:34;7.28;;;6.38;;
55362;SDS011;41244;49.242;9.060;2023-02-01T02:34:26;11.52;;;7.13;;
55362;SDS011;41244;49.242;9.060;2023-02-01T02:37:15;10.35;;;6.50;;
55362;SDS011;41244;49.242;9.060;2023-02-01T02:40:07;8.48;;;6.13;;
55362;SDS011;41244;49.242;9.060;2023-02-01T02:46:25;6.90;;;5.75;;
55362;SDS011;41244;49.242;9.060;2023-02-01T02:49:18;8.40;;;6.20;;
55362;SDS011;41244;49.242;9.060;2023-02-01T02:52:01;9.65;;;6.22;;
55362;SDS011;41244;49.242;9.060;2023-02-01T02:54:48;8.93;;;5.80;;
55362;SDS011;41244;49.242;9.060;2023-02-01T03:00:16;9.30;;;6.28;;
55362;SDS011;41244;49.242;9.060;2023-02-01T03:03:03;7.63;;;5.75;;
55362;SDS011;41244;49.242;9.060;2023-02-01T03:05:49;7.90;;;5.47;;
55362;SDS011;41244;49.242;9.060;2023-02-01T03:08:24;9.52;;;5.65;;
55362;SDS011;41244;49.242;9.060;2023-02-01T03:21:53;7.55;;;5.93;;
55362;SDS011;41244;49.242;9.060;2023-02-01T03:24:34;8.82;;;5.63;;
55362;SDS011;41244;49.242;9.060;2023-02-01T03:27:10;8.80;;;6.07;;
55362;SDS011;41244;49.242;9.060;2023-02-01T03:29:48;6.15;;;4.97;;
55362;SDS011;41244;49.242;9.060;2023-02-01T03:32:24;9.10;;;6.38;;
55362;SDS011;41244;49.242;9.060;2023-02-01T03:34:50;7.70;;;6.45;;
55362;SDS011;41244;49.242;9.060;2023-02-01T03:37:18;8.43;;;5.95;;
55362;SDS011;41244;49.242;9.060;2023-02-01T03:40:01;6.43;;;5.75;;
55362;SDS011;41244;49.242;9.060;2023-02-01T03:42:37;8.07;;;5.90;;
55362;SDS011;41244;49.242;9.060;2023-02-01T03:45:13;8.85;;;6.10;;
55362;SDS011;41244;49.242;9.060;2023-02-01T03:47:50;7.38;;;5.38;;
55362;SDS011;41244;49.242;9.060;2023-02-01T03:50:21;7.45;;;6.35;;
55362;SDS011;41244;49.242;9.060;2023-02-01T03:55:32;7.07;;;5.82;;
55362;SDS011;41244;49.242;9.060;2023-02-01T03:58:01;6.55;;;5.63;;
55362;SDS011;41244;49.242;9.060;2023-02-01T04:00:34;7.78;;;5.80;;
55362;SDS011;41244;49.242;9.060;2023-02-01T04:03:00;7.55;;;5.53;;
55362;SDS011;41244;49.242;9.060;2023-02-01T04:05:29;6.22;;;5.13;;
55362;SDS011;41244;49.242;9.060;2023-02-01T04:07:55;7.85;;;5.68;;
55362;SDS011;41244;49.242;9.060;2023-02-01T04:10:21;7.93;;;5.65;;
55362;SDS011;41244;49.242;9.060;2023-02-01T04:12:47;7.57;;;6.18;;
55362;SDS011;41244;49.242;9.060;2023-02-01T04:15:13;5.95;;;5.25;;
55362;SDS011;41244;49.242;9.060;2023-02-01T04:17:39;7.00;;;5.72;;
55362;SDS011;41244;49.242;9.060;2023-02-01T04:20:05;8.75;;;5.93;;
55362;SDS011;41244;49.242;9.060;2023-02-01T04:22:31;8.00;;;6.03;;
55362;SDS011;41244;49.242;9.060;2023-02-01T04:24:57;9.70;;;5.95;;
55362;SDS011;41244;49.242;9.060;2023-02-01T04:27:23;7.47;;;5.68;;
55362;SDS011;41244;49.242;9.060;2023-02-01T04:29:48;8.05;;;5.85;;
55362;SDS011;41244;49.242;9.060;2023-02-01T04:32:14;9.98;;;6.00;;
55362;SDS011;41244;49.242;9.060;2023-02-01T04:34:41;7.22;;;5.10;;
55362;SDS011;41244;49.242;9.060;2023-02-01T04:37:07;9.13;;;6.05;;
55362;SDS011;41244;49.242;9.060;2023-02-01T04:39:33;9.52;;;6.38;;
55362;SDS011;41244;49.242;9.060;2023-02-01T04:41:58;10.10;;;5.68;;
55362;SDS011;41244;49.242;9.060;2023-02-01T04:44:24;9.10;;;5.63;;
55362;SDS011;41244;49.242;9.060;2023-02-01T04:46:50;7.70;;;6.10;;
55362;SDS011;41244;49.242;9.060;2023-02-01T04:49:16;9.55;;;5.78;;
55362;SDS011;41244;49.242;9.060;2023-02-01T04:51:42;11.27;;;6.85;;
55362;SDS011;41244;49.242;9.060;2023-02-01T04:54:08;11.30;;;7.13;;
55362;SDS011;41244;49.242;9.060;2023-02-01T04:56:36;8.45;;;6.00;;
55362;SDS011;41244;49.242;9.060;2023-02-01T04:59:02;6.65;;;5.60;;
55362;SDS011;41244;49.242;9.060;2023-02-01T05:01:29;8.57;;;5.55;;
55362;SDS011;41244;49.242;9.060;2023-02-01T05:03:55;7.68;;;5.75;;
55362;SDS011;41244;49.242;9.060;2023-02-01T05:06:21;7.45;;;5.70;;
55362;SDS011;41244;49.242;9.060;2023-02-01T05:08:47;7.20;;;5.40;;
55362;SDS011;41244;49.242;9.060;2023-02-01T05:11:13;8.77;;;5.57;;
55362;SDS011;41244;49.242;9.060;2023-02-01T05:13:57;7.40;;;5.25;;
55362;SDS011;41244;49.242;9.060;2023-02-01T05:16:24;6.35;;;5.32;;
55362;SDS011;41244;49.242;9.060;2023-02-01T05:18:50;8.18;;;5.63;;
55362;SDS011;41244;49.242;9.060;2023-02-01T05:21:17;7.45;;;5.13;;
55362;SDS011;41244;49.242;9.060;2023-02-01T05:23:43;9.05;;;5.18;;
55362;SDS011;41244;49.242;9.060;2023-02-01T05:28:52;6.43;;;4.50;;
55362;SDS011;41244;49.242;9.060;2023-02-01T05:31:18;6.10;;;4.28;;
55362;SDS011;41244;49.242;9.060;2023-02-01T05:33:44;5.68;;;4.43;;
55362;SDS011;41244;49.242;9.060;2023-02-01T05:36:10;5.85;;;4.03;;
55362;SDS011;41244;49.242;9.060;2023-02-01T05:38:35;6.00;;;4.47;;
55362;SDS011;41244;49.242;9.060;2023-02-01T05:41:01;5.25;;;4.28;;
55362;SDS011;41244;49.242;9.060;2023-02-01T05:43:27;6.97;;;4.75;;
55362;SDS011;41244;49.242;9.060;2023-02-01T05:45:53;7.35;;;5.20;;
55362;SDS011;41244;49.242;9.060;2023-02-01T05:48:19;6.75;;;5.07;;
55362;SDS011;41244;49.242;9.060;2023-02-01T05:50:45;8.65;;;6.15;;
55362;SDS011;41244;49.242;9.060;2023-02-01T05:53:11;9.02;;;6.47;;
55362;SDS011;41244;49.242;9.060;2023-02-01T05:55:37;10.50;;;7.25;;
55362;SDS011;41244;49.242;9.060;2023-02-01T05:58:03;8.48;;;5.85;;
55362;SDS011;41244;49.242;9.060;2023-02-01T06:00:29;7.10;;;5.18;;
55362;SDS011;41244;49.242;9.060;2023-02-01T06:02:55;8.27;;;6.15;;
55362;SDS011;41244;49.242;9.060;2023-02-01T06:05:21;10.70;;;6.45;;
55362;SDS011;41244;49.242;9.060;2023-02-01T06:07:47;10.30;;;6.40;;
55362;SDS011;41244;49.242;9.060;2023-02-01T06:10:14;9.23;;;5.90;;
55362;SDS011;41244;49.242;9.060;2023-02-01T06:12:42;11.63;;;5.53;;
55362;SDS011;41244;49.242;9.060;2023-02-01T06:15:09;10.27;;;5.45;;
55362;SDS011;41244;49.242;9.060;2023-02-01T06:17:40;6.63;;;5.25;;
55362;SDS011;41244;49.242;9.060;2023-02-01T06:20:08;8.90;;;5.43;;
55362;SDS011;41244;49.242;9.060;2023-02-01T06:22:35;8.80;;;5.47;;
55362;SDS011;41244;49.242;9.060;2023-02-01T06:25:01;8.30;;;5.35;;
55362;SDS011;41244;49.242;9.060;2023-02-01T06:27:34;9.85;;;6.88;;
55362;SDS011;41244;49.242;9.060;2023-02-01T06:29:59;10.32;;;7.13;;
55362;SDS011;41244;49.242;9.060;2023-02-01T06:32:25;13.20;;;6.75;;
55362;SDS011;41244;49.242;9.060;2023-02-01T06:34:51;7.97;;;5.80;;
55362;SDS011;41244;49.242;9.060;2023-02-01T06:37:17;7.50;;;6.25;;
55362;SDS011;41244;49.242;9.060;2023-02-01T06:39:44;13.10;;;7.22;;
55362;SDS011;41244;49.242;9.060;2023-02-01T06:42:10;12.80;;;7.10;;
55362;SDS011;41244;49.242;9.060;2023-02-01T06:44:36;9.95;;;6.75;;
55362;SDS011;41244;49.242;9.060;2023-02-01T06:47:02;9.70;;;6.90;;
55362;SDS011;41244;49.242;9.060;2023-02-01T06:49:29;9.70;;;6.82;;
55362;SDS011;41244;49.242;9.060;2023-02-01T06:51:54;12.75;;;7.63;;
55362;SDS011;41244;49.242;9.060;2023-02-01T06:54:20;8.10;;;7.18;;
55362;SDS011;41244;49.242;9.060;2023-02-01T06:56:46;10.48;;;6.88;;
55362;SDS011;41244;49.242;9.060;2023-02-01T06:59:12;9.70;;;7.35;;
55362;SDS011;41244;49.242;9.060;2023-02-01T07:01:38;10.73;;;6.28;;
55362;SDS011;41244;49.242;9.060;2023-02-01T07:04:03;10.90;;;7.60;;
55362;SDS011;41244;49.242;9.060;2023-02-01T07:06:29;10.25;;;6.95;;
55362;SDS011;41244;49.242;9.060;2023-02-01T07:08:55;10.73;;;7.30;;
55362;SDS011;41244;49.242;9.060;2023-02-01T07:11:22;13.10;;;6.47;;
55362;SDS011;41244;49.242;9.060;2023-02-01T07:13:48;12.15;;;6.82;;
55362;SDS011;41244;49.242;9.060;2023-02-01T07:16:16;11.02;;;6.47;;
55362;SDS011;41244;49.242;9.060;2023-02-01T07:18:44;8.52;;;6.72;;
55362;SDS011;41244;49.242;9.060;2023-02-01T07:21:10;10.90;;;6.80;;
55362;SDS011;41244;49.242;9.060;2023-02-01T07:23:36;11.57;;;6.70;;
55362;SDS011;41244;49.242;9.060;2023-02-01T07:26:04;9.57;;;6.10;;
55362;SDS011;41244;49.242;9.060;2023-02-01T07:28:33;11.73;;;7.82;;
55362;SDS011;41244;49.242;9.060;2023-02-01T07:31:34;9.13;;;7.00;;
55362;SDS011;41244;49.242;9.060;2023-02-01T07:33:54;10.32;;;6.57;;
55362;SDS011;41244;49.242;9.060;2023-02-01T07:36:21;10.48;;;6.35;;
55362;SDS011;41244;49.242;9.060;2023-02-01T07:38:47;13.10;;;7.25;;
55362;SDS011;41244;49.242;9.060;2023-02-01T07:41:13;9.85;;;5.85;;
55362;SDS011;41244;49.242;9.060;2023-02-01T07:43:39;13.55;;;6.80;;
55362;SDS011;41244;49.242;9.060;2023-02-01T07:46:05;11.07;;;6.70;;
55362;SDS011;41244;49.242;9.060;2023-02-01T07:48:31;9.52;;;5.30;;
55362;SDS011;41244;49.242;9.060;2023-02-01T07:50:59;11.43;;;6.18;;
55362;SDS011;41244;49.242;9.060;2023-02-01T07:53:29;7.32;;;5.35;;
55362;SDS011;41244;49.242;9.060;2023-02-01T07:55:56;7.63;;;5.18;;
55362;SDS011;41244;49.242;9.060;2023-02-01T07:58:22;12.07;;;7.22;;
55362;SDS011;41244;49.242;9.060;2023-02-01T08:00:49;15.95;;;7.95;;
55362;SDS011;41244;49.242;9.060;2023-02-01T08:05:59;11.57;;;6.78;;
55362;SDS011;41244;49.242;9.060;2023-02-01T08:08:24;15.38;;;6.85;;
55362;SDS011;41244;49.242;9.060;2023-02-01T08:10:50;13.02;;;7.28;;
55362;SDS011;41244;49.242;9.060;2023-02-01T08:13:16;13.05;;;6.90;;
55362;SDS011;41244;49.242;9.060;2023-02-01T08:15:42;9.52;;;6.68;;
55362;SDS011;41244;49.242;9.060;2023-02-01T08:18:08;11.70;;;8.15;;
55362;SDS011;41244;49.242;9.060;2023-02-01T08:20:35;10.68;;;7.25;;
55362;SDS011;41244;49.242;9.060;2023-02-01T08:23:01;15.15;;;8.27;;
55362;SDS011;41244;49.242;9.060;2023-02-01T08:25:27;23.48;;;16.50;;
55362;SDS011;41244;49.242;9.060;2023-02-01T08:27:53;11.68;;;7.95;;
55362;SDS011;41244;49.242;9.060;2023-02-01T08:30:19;12.60;;;7.32;;
55362;SDS011;41244;49.242;9.060;2023-02-01T08:32:46;12.82;;;6.75;;
55362;SDS011;41244;49.242;9.060;2023-02-01T08:35:12;10.98;;;7.03;;
55362;SDS011;41244;49.242;9.060;2023-02-01T08:37:38;9.48;;;7.20;;
55362;SDS011;41244;49.242;9.060;2023-02-01T08:40:04;11.65;;;6.93;;
55362;SDS011;41244;49.242;9.060;2023-02-01T08:42:31;14.60;;;7.93;;
55362;SDS011;41244;49.242;9.060;2023-02-01T08:45:15;11.70;;;7.22;;
55362;SDS011;41244;49.242;9.060;2023-02-01T08:47:48;10.85;;;7.30;;
55362;SDS011;41244;49.242;9.060;2023-02-01T08:50:16;15.68;;;7.75;;
55362;SDS011;41244;49.242;9.060;2023-02-01T08:52:42;17.45;;;8.05;;
55362;SDS011;41244;49.242;9.060;2023-02-01T08:55:08;12.65;;;6.78;;
55362;SDS011;41244;49.242;9.060;2023-02-01T08:57:34;11.68;;;7.35;;
55362;SDS011;41244;49.242;9.060;2023-02-01T09:00:00;16.98;;;7.93;;
55362;SDS011;41244;49.242;9.060;2023-02-01T09:02:28;17.52;;;8.40;;
55362;SDS011;41244;49.242;9.060;2023-02-01T09:04:53;16.88;;;7.35;;
55362;SDS011;41244;49.242;9.060;2023-02-01T09:07:21;15.93;;;7.30;;
55362;SDS011;41244;49.242;9.060;2023-02-01T09:09:47;11.75;;;7.38;;
55362;SDS011;41244;49.242;9.060;2023-02-01T09:12:13;16.02;;;6.80;;
55362;SDS011;41244;49.242;9.060;2023-02-01T09:14:38;14.63;;;7.00;;
55362;SDS011;41244;49.242;9.060;2023-02-01T09:17:04;17.45;;;7.38;;
55362;SDS011;41244;49.242;9.060;2023-02-01T09:19:30;10.15;;;6.35;;
55362;SDS011;41244;49.242;9.060;2023-02-01T09:21:56;10.63;;;5.95;;
55362;SDS011;41244;49.242;9.060;2023-02-01T09:24:22;12.73;;;6.80;;
55362;SDS011;41244;49.242;9.060;2023-02-01T09:26:48;16.70;;;6.53;;
55362;SDS011;41244;49.242;9.060;2023-02-01T09:29:14;10.57;;;6.45;;
55362;SDS011;41244;49.242;9.060;2023-02-01T09:31:40;12.07;;;6.50;;
55362;SDS011;41244;49.242;9.060;2023-02-01T09:34:07;14.13;;;6.38;;
55362;SDS011;41244;49.242;9.060;2023-02-01T09:36:33;14.25;;;6.43;;
55362;SDS011;41244;49.242;9.060;2023-02-01T09:38:59;13.70;;;6.28;;
55362;SDS011;41244;49.242;9.060;2023-02-01T09:41:30;12.63;;;6.47;;
55362;SDS011;41244;49.242;9.060;2023-02-01T09:47:15;13.15;;;5.85;;
55362;SDS011;41244;49.242;9.060;2023-02-01T09:49:55;11.82;;;6.03;;
55362;SDS011;41244;49.242;9.060;2023-02-01T09:52:48;13.15;;;5.57;;
55362;SDS011;41244;49.242;9.060;2023-02-01T09:55:36;13.50;;;5.18;;
55362;SDS011;41244;49.242;9.060;2023-02-01T09:58:16;16.23;;;6.00;;
55362;SDS011;41244;49.242;9.060;2023-02-01T10:00:55;12.23;;;4.78;;
55362;SDS011;41244;49.242;9.060;2023-02-01T10:03:30;11.10;;;4.82;;
55362;SDS011;41244;49.242;9.060;2023-02-01T10:08:51;13.63;;;5.40;;
55362;SDS011;41244;49.242;9.060;2023-02-01T10:11:42;13.57;;;5.75;;
55362;SDS011;41244;49.242;9.060;2023-02-01T10:17:20;20.63;;;9.90;;
55362;SDS011;41244;49.242;9.060;2023-02-01T10:20:28;31.60;;;13.02;;
55362;SDS011;41244;49.242;9.060;2023-02-01T10:25:55;17.15;;;7.82;;
55362;SDS011;41244;49.242;9.060;2023-02-01T10:28:27;24.42;;;9.30;;
55362;SDS011;41244;49.242;9.060;2023-02-01T10:30:54;15.82;;;6.82;;
55362;SDS011;41244;49.242;9.060;2023-02-01T10:33:26;16.55;;;7.07;;
55362;SDS011;41244;49.242;9.060;2023-02-01T10:36:04;16.42;;;6.28;;
55362;SDS011;41244;49.242;9.060;2023-02-01T10:38:56;10.73;;;4.63;;
55362;SDS011;41244;49.242;9.060;2023-02-01T10:41:24;18.40;;;6.20;;
55362;SDS011;41244;49.242;9.060;2023-02-01T10:43:58;13.85;;;4.88;;
55362;SDS011;41244;49.242;9.060;2023-02-01T10:46:26;13.18;;;4.40;;
55362;SDS011;41244;49.242;9.060;2023-02-01T10:48:52;19.33;;;4.80;;
55362;SDS011;41244;49.242;9.060;2023-02-01T10:51:28;11.43;;;4.30;;
55362;SDS011;41244;49.242;9.060;2023-02-01T10:54:09;16.05;;;5.13;;
55362;SDS011;41244;49.242;9.060;2023-02-01T10:56:45;15.55;;;5.38;;
55362;SDS011;41244;49.242;9.060;2023-02-01T10:59:18;15.90;;;5.05;;
55362;SDS011;41244;49.242;9.060;2023-02-01T11:01:48;16.08;;;4.47;;
55362;SDS011;41244;49.242;9.060;2023-02-01T11:04:19;15.07;;;4.38;;
55362;SDS011;41244;49.242;9.060;2023-02-01T11:06:49;17.23;;;5.60;;
55362;SDS011;41244;49.242;9.060;2023-02-01T11:09:50;9.73;;;4.70;;
55362;SDS011;41244;49.242;9.060;2023-02-01T11:17:46;20.88;;;5.80;;
55362;SDS011;41244;49.242;9.060;2023-02-01T11:21:01;11.93;;;4.50;;
55362;SDS011;41244;49.242;9.060;2023-02-01T11:23:05;18.33;;;4.97;;
55362;SDS011;41244;49.242;9.060;2023-02-01T11:25:38;14.50;;;4.65;;
55362;SDS011;41244;49.242;9.060;2023-02-01T11:28:40;12.82;;;4.78;;
55362;SDS011;41244;49.242;9.060;2023-02-01T11:31:17;17.08;;;5.03;;
55362;SDS011;41244;49.242;9.060;2023-02-01T11:33:51;12.25;;;4.43;;
55362;SDS011;41244;49.242;9.060;2023-02-01T11:36:21;14.98;;;4.57;;
55362;SDS011;41244;49.242;9.060;2023-02-01T11:39:28;12.95;;;4.68;;
55362;SDS011;41244;49.242;9.060;2023-02-01T11:41:59;17.77;;;4.60;;
55362;SDS011;41244;49.242;9.060;2023-02-01T11:44:41;18.13;;;5.22;;
55362;SDS011;41244;49.242;9.060;2023-02-01T11:49:50;11.02;;;4.00;;
55362;SDS011;41244;49.242;9.060;2023-02-01T11:52:34;14.10;;;5.20;;
55362;SDS011;41244;49.242;9.060;2023-02-01T11:58:30;20.05;;;7.90;;
55362;SDS011;41244;49.242;9.060;2023-02-01T12:14:35;14.90;;;4.78;;
55362;SDS011;41244;49.242;9.060;2023-02-01T12:30:55;19.23;;;6.53;;
55362;SDS011;41244;49.242;9.060;2023-02-01T12:39:44;17.20;;;5.72;;
55362;SDS011;41244;49.242;9.060;2023-02-01T12:42:56;14.65;;;5.20;;
55362;SDS011;41244;49.242;9.060;2023-02-01T12:45:58;17.50;;;5.22;;
55362;SDS011;41244;49.242;9.060;2023-02-01T12:51:04;12.27;;;4.85;;
55362;SDS011;41244;49.242;9.060;2023-02-01T12:56:57;13.20;;;5.03;;
55362;SDS011;41244;49.242;9.060;2023-02-01T12:59:34;19.60;;;5.93;;
55362;SDS011;41244;49.242;9.060;2023-02-01T13:02:30;16.80;;;4.50;;
55362;SDS011;41244;49.242;9.060;2023-02-01T13:21:49;17.73;;;7.68;;
55362;SDS011;41244;49.242;9.060;2023-02-01T13:24:40;25.60;;;9.52;;
55362;SDS011;41244;49.242;9.060;2023-02-01T13:27:13;17.33;;;6.38;;
55362;SDS011;41244;49.242;9.060;2023-02-01T13:29:45;19.50;;;6.20;;
55362;SDS011;41244;49.242;9.060;2023-02-01T13:41:27;9.13;;;3.80;;
55362;SDS011;41244;49.242;9.060;2023-02-01T13:44:00;13.00;;;4.85;;
55362;SDS011;41244;49.242;9.060;2023-02-01T13:46:43;17.95;;;4.63;;
55362;SDS011;41244;49.242;9.060;2023-02-01T13:49:21;15.45;;;4.75;;
55362;SDS011;41244;49.242;9.060;2023-02-01T13:51:55;16.38;;;6.25;;
55362;SDS011;41244;49.242;9.060;2023-02-01T13:54:32;14.25;;;4.18;;
55362;SDS011;41244;49.242;9.060;2023-02-01T13:57:02;10.30;;;3.92;;
55362;SDS011;41244;49.242;9.060;2023-02-01T13:59:44;14.77;;;4.50;;
55362;SDS011;41244;49.242;9.060;2023-02-01T14:05:04;15.75;;;4.97;;
55362;SDS011;41244;49.242;9.060;2023-02-01T14:13:31;13.30;;;4.50;;
55362;SDS011;41244;49.242;9.060;2023-02-01T14:23:44;12.75;;;4.85;;
55362;SDS011;41244;49.242;9.060;2023-02-01T14:26:13;16.60;;;4.78;;
55362;SDS011;41244;49.242;9.060;2023-02-01T14:28:43;10.40;;;3.95;;
55362;SDS011;41244;49.242;9.060;2023-02-01T14:31:17;12.95;;;3.90;;
55362;SDS011;41244;49.242;9.060;2023-02-01T14:34:00;14.02;;;5.43;;
55362;SDS011;41244;49.242;9.060;2023-02-01T14:39:38;33.90;;;9.88;;
55362;SDS011;41244;49.242;9.060;2023-02-01T14:50:41;11.80;;;4.82;;
55362;SDS011;41244;49.242;9.060;2023-02-01T14:58:34;13.20;;;3.92;;
55362;SDS011;41244;49.242;9.060;2023-02-01T15:01:34;12.45;;;4.75;;
55362;SDS011;41244;49.242;9.060;2023-02-01T15:04:09;18.85;;;6.70;;
55362;SDS011;41244;49.242;9.060;2023-02-01T15:09:33;14.88;;;4.80;;
55362;SDS011;41244;49.242;9.060;2023-02-01T15:14:40;14.90;;;4.03;;
55362;SDS011;41244;49.242;9.060;2023-02-01T15:17:23;14.07;;;3.80;;
55362;SDS011;41244;49.242;9.060;2023-02-01T15:19:52;16.98;;;4.40;;
55362;SDS011;41244;49.242;9.060;2023-02-01T15:22:38;15.32;;;4.13;;
55362;SDS011;41244;49.242;9.060;2023-02-01T15:25:04;15.95;;;4.60;;
55362;SDS011;41244;49.242;9.060;2023-02-01T15:27:31;10.10;;;3.95;;
55362;SDS011;41244;49.242;9.060;2023-02-01T15:30:07;19.55;;;4.70;;
55362;SDS011;41244;49.242;9.060;2023-02-01T15:32:43;14.82;;;5.18;;
55362;SDS011;41244;49.242;9.060;2023-02-01T15:38:18;16.17;;;4.10;;
55362;SDS011;41244;49.242;9.060;2023-02-01T15:41:07;17.00;;;4.10;;
55362;SDS011;41244;49.242;9.060;2023-02-01T15:46:22;15.60;;;3.80;;
55362;SDS011;41244;49.242;9.060;2023-02-01T15:49:24;15.48;;;5.05;;
55362;SDS011;41244;49.242;9.060;2023-02-01T15:51:57;13.85;;;3.58;;
55362;SDS011;41244;49.242;9.060;2023-02-01T15:54:26;17.50;;;4.18;;
55362;SDS011;41244;49.242;9.060;2023-02-01T15:57:09;14.88;;;4.32;;
55362;SDS011;41244;49.242;9.060;2023-02-01T15:59:42;17.02;;;3.92;;
55362;SDS011;41244;49.242;9.060;2023-02-01T16:05:04;18.80;;;4.47;;
55362;SDS011;41244;49.242;9.060;2023-02-01T16:10:40;30.85;;;16.90;;
55362;SDS011;41244;49.242;9.060;2023-02-01T16:13:09;17.27;;;5.07;;
55362;SDS011;41244;49.242;9.060;2023-02-01T16:15:35;12.82;;;4.65;;
55362;SDS011;41244;49.242;9.060;2023-02-01T16:18:01;16.75;;;4.78;;
55362;SDS011;41244;49.242;9.060;2023-02-01T16:20:27;13.20;;;4.95;;
55362;SDS011;41244;49.242;9.060;2023-02-01T16:22:54;10.63;;;4.45;;
55362;SDS011;41244;49.242;9.060;2023-02-01T16:25:20;16.95;;;4.55;;
55362;SDS011;41244;49.242;9.060;2023-02-01T16:27:46;20.08;;;4.97;;
55362;SDS011;41244;49.242;9.060;2023-02-01T16:30:13;16.90;;;5.22;;
55362;SDS011;41244;49.242;9.060;2023-02-01T16:32:39;15.73;;;4.70;;
55362;SDS011;41244;49.242;9.060;2023-02-01T16:35:05;13.63;;;4.18;;
55362;SDS011;41244;49.242;9.060;2023-02-01T16:37:51;20.25;;;5.95;;
55362;SDS011;41244;49.242;9.060;2023-02-01T16:40:17;17.65;;;4.60;;
55362;SDS011;41244;49.242;9.060;2023-02-01T16:42:45;16.45;;;5.00;;
55362;SDS011;41244;49.242;9.060;2023-02-01T16:45:13;13.63;;;4.15;;
55362;SDS011;41244;49.242;9.060;2023-02-01T16:47:40;16.75;;;4.78;;
55362;SDS011;41244;49.242;9.060;2023-02-01T16:50:20;17.30;;;4.57;;
55362;SDS011;41244;49.242;9.060;2023-02-01T16:52:48;16.45;;;4.45;;
55362;SDS011;41244;49.242;9.060;2023-02-01T16:55:15;17.60;;;5.18;;
55362;SDS011;41244;49.242;9.060;2023-02-01T16:57:43;22.95;;;4.40;;
55362;SDS011;41244;49.242;9.060;2023-02-01T17:00:10;16.77;;;4.95;;
55362;SDS011;41244;49.242;9.060;2023-02-01T17:02:37;16.38;;;4.65;;
55362;SDS011;41244;49.242;9.060;2023-02-01T17:05:03;15.52;;;4.97;;
55362;SDS011;41244;49.242;9.060;2023-02-01T17:07:33;12.75;;;4.35;;
55362;SDS011;41244;49.242;9.060;2023-02-01T17:09:59;16.90;;;4.40;;
55362;SDS011;41244;49.242;9.060;2023-02-01T17:12:26;10.15;;;4.78;;
55362;SDS011;41244;49.242;9.060;2023-02-01T17:14:57;17.63;;;4.57;;
55362;SDS011;41244;49.242;9.060;2023-02-01T17:17:31;14.95;;;5.13;;
55362;SDS011;41244;49.242;9.060;2023-02-01T17:20:00;15.68;;;4.78;;
55362;SDS011;41244;49.242;9.060;2023-02-01T17:22:26;16.42;;;4.55;;
55362;SDS011;41244;49.242;9.060;2023-02-01T17:24:51;16.17;;;4.55;;
55362;SDS011;41244;49.242;9.060;2023-02-01T17:27:18;16.83;;;5.45;;
55362;SDS011;41244;49.242;9.060;2023-02-01T17:29:43;16.25;;;5.13;;
55362;SDS011;41244;49.242;9.060;2023-02-01T17:32:16;18.23;;;5.85;;
55362;SDS011;41244;49.242;9.060;2023-02-01T17:34:45;16.60;;;5.75;;
55362;SDS011;41244;49.242;9.060;2023-02-01T17:37:25;20.35;;;4.63;;
55362;SDS011;41244;49.242;9.060;2023-02-01T17:39:54;17.15;;;4.40;;
55362;SDS011;41244;49.242;9.060;2023-02-01T17:42:20;17.98;;;4.78;;
55362;SDS011;41244;49.242;9.060;2023-02-01T17:44:47;13.90;;;5.15;;
55362;SDS011;41244;49.242;9.060;2023-02-01T17:47:15;14.20;;;4.57;;
55362;SDS011;41244;49.242;9.060;2023-02-01T17:49:44;21.17;;;4.95;;
55362;SDS011;41244;49.242;9.060;2023-02-01T17:52:13;18.02;;;4.65;;
55362;SDS011;41244;49.242;9.060;2023-02-01T17:54:42;17.65;;;5.03;;
55362;SDS011;41244;49.242;9.060;2023-02-01T17:57:11;13.43;;;3.80;;
55362;SDS011;41244;49.242;9.060;2023-02-01T17:59:38;15.52;;;5.15;;
55362;SDS011;41244;49.242;9.060;2023-02-01T18:02:10;14.30;;;4.47;;
55362;SDS011;41244;49.242;9.060;2023-02-01T18:04:46;15.93;;;4.72;;
55362;SDS011;41244;49.242;9.060;2023-02-01T18:07:13;17.70;;;4.32;;
55362;SDS011;41244;49.242;9.060;2023-02-01T18:09:39;18.00;;;4.93;;